Time;durP1;ratioP1;P1;durP2;ratioP2;P2;SDS_P1;SDS_P2;PMS_P1;PMS_P2;Temp;Humidity;BMP_temperature;BMP_pressure;BME280_temperature;BME280_humidity;BME280_pressure;Samples;Min_cycle;Max_cycle;Signal;HPM_P1;HPM_P2
2023/10/04 00:00:18;;;;;;;5.82;1.92;;;12.30;99.90;;;;;;4991897;28;20261;-75
2023/10/04 00:02:51;;;;;;;4.80;1.77;;;12.30;99.90;;;;;;4992062;28;20041;-74
2023/10/04 00:05:19;;;;;;;7.60;2.60;;;12.20;99.90;;;;;;4996024;28;20123;-75
2023/10/04 00:07:47;;;;;;;8.85;2.65;;;12.20;99.90;;;;;;4981521;28;20330;-74
2023/10/04 00:10:15;;;;;;;5.28;2.25;;;12.20;99.90;;;;;;4978427;28;20038;-74
2023/10/04 00:12:43;;;;;;;7.03;2.28;;;12.20;99.90;;;;;;5006970;28;20468;-75
2023/10/04 00:15:12;;;;;;;6.32;2.35;;;12.20;99.90;;;;;;4977931;28;20381;-75
2023/10/04 00:17:41;;;;;;;6.60;2.28;;;12.20;99.90;;;;;;4991783;28;20030;-74
2023/10/04 00:20:10;;;;;;;6.70;2.50;;;12.20;99.90;;;;;;4995409;28;20061;-74
2023/10/04 00:22:39;;;;;;;4.28;1.65;;;12.20;99.90;;;;;;4978911;28;20456;-74
2023/10/04 00:25:11;;;;;;;4.15;1.52;;;12.20;99.90;;;;;;4995581;28;20038;-74
2023/10/04 00:27:41;;;;;;;5.85;1.88;;;12.20;99.90;;;;;;5008402;28;20500;-74
2023/10/04 00:30:18;;;;;;;6.32;1.67;;;12.20;99.90;;;;;;4994584;28;20033;-74
2023/10/04 00:32:46;;;;;;;4.47;1.42;;;12.20;99.90;;;;;;4995662;28;20485;-74
2023/10/04 00:35:17;;;;;;;12.85;3.28;;;12.20;99.90;;;;;;4994266;28;20033;-74
2023/10/04 00:37:45;;;;;;;6.88;1.92;;;12.20;99.90;;;;;;4997243;28;20040;-75
2023/10/04 00:40:17;;;;;;;5.30;1.85;;;12.20;99.90;;;;;;4996393;28;20042;-74
2023/10/04 00:42:47;;;;;;;4.68;1.80;;;12.20;99.90;;;;;;4993072;28;20018;-74
2023/10/04 00:45:15;;;;;;;5.00;2.20;;;12.20;99.90;;;;;;4976520;28;20033;-75
2023/10/04 00:47:47;;;;;;;8.73;2.45;;;12.20;99.90;;;;;;4979779;28;20033;-74
2023/10/04 00:50:16;;;;;;;6.78;2.85;;;12.20;99.90;;;;;;4965532;28;20034;-75
2023/10/04 00:52:47;;;;;;;5.32;2.00;;;12.20;99.90;;;;;;4977164;28;20037;-75
2023/10/04 00:55:21;;;;;;;5.82;2.03;;;12.20;99.90;;;;;;4995665;28;20045;-74
2023/10/04 00:57:51;;;;;;;3.80;1.60;;;12.20;99.90;;;;;;5010311;28;20109;-75
2023/10/04 01:00:18;;;;;;;5.45;1.48;;;12.20;99.90;;;;;;4996959;28;20050;-75
2023/10/04 01:02:44;;;;;;;5.07;1.55;;;12.20;99.90;;;;;;4979614;28;20042;-74
2023/10/04 01:05:12;;;;;;;5.70;2.40;;;12.20;99.90;;;;;;4977206;28;20033;-73
2023/10/04 01:07:40;;;;;;;5.95;1.88;;;12.20;99.90;;;;;;4992661;28;20034;-74
2023/10/04 01:10:07;;;;;;;6.80;2.33;;;12.20;99.90;;;;;;4975888;28;20035;-73
2023/10/04 01:12:34;;;;;;;5.03;2.20;;;12.20;99.90;;;;;;4996140;28;20037;-75
2023/10/04 01:15:12;;;;;;;5.75;1.92;;;12.30;99.90;;;;;;4982013;28;20022;-75
2023/10/04 01:17:39;;;;;;;3.60;2.05;;;12.30;99.90;;;;;;4978835;28;20040;-74
2023/10/04 01:20:13;;;;;;;6.53;2.30;;;12.30;99.90;;;;;;4979322;28;20721;-74
2023/10/04 01:22:39;;;;;;;8.63;2.50;;;12.30;99.90;;;;;;4994491;28;20049;-74
2023/10/04 01:25:06;;;;;;;7.53;2.42;;;12.30;99.90;;;;;;5009501;28;20362;-74
2023/10/04 01:27:38;;;;;;;6.32;2.15;;;12.30;99.90;;;;;;4975873;28;20061;-74
2023/10/04 01:30:08;;;;;;;10.27;2.65;;;12.30;99.90;;;;;;4977489;28;20053;-74
2023/10/04 01:32:34;;;;;;;5.78;1.92;;;12.30;99.90;;;;;;4994672;28;20049;-74
2023/10/04 01:35:00;;;;;;;9.73;3.55;;;12.30;99.90;;;;;;4994374;28;20041;-74
2023/10/04 01:37:30;;;;;;;9.07;2.38;;;12.40;99.90;;;;;;4992671;28;20509;-74
2023/10/04 01:39:58;;;;;;;6.93;2.17;;;12.40;99.90;;;;;;4994095;28;20551;-74
2023/10/04 01:42:25;;;;;;;7.53;2.47;;;12.40;99.90;;;;;;4960077;28;20026;-75
2023/10/04 01:44:55;;;;;;;6.10;2.50;;;12.40;99.90;;;;;;4993999;28;20030;-74
2023/10/04 01:47:21;;;;;;;7.38;2.28;;;12.40;99.90;;;;;;5007220;28;20029;-75
2023/10/04 01:49:48;;;;;;;8.82;2.80;;;12.40;99.90;;;;;;4993595;28;20400;-74
2023/10/04 01:52:14;;;;;;;7.35;2.40;;;12.40;99.90;;;;;;4991365;28;20045;-74
2023/10/04 01:54:41;;;;;;;6.22;2.22;;;12.40;99.90;;;;;;4994233;28;20045;-74
2023/10/04 01:57:07;;;;;;;5.80;2.22;;;12.40;99.90;;;;;;4961755;28;20041;-74
2023/10/04 01:59:33;;;;;;;10.02;3.40;;;12.40;99.90;;;;;;4995626;28;20025;-74
2023/10/04 02:02:00;;;;;;;7.40;2.65;;;12.50;99.90;;;;;;5007989;28;20034;-74
2023/10/04 02:04:26;;;;;;;10.27;3.00;;;12.40;99.90;;;;;;4977018;28;20041;-74
2023/10/04 02:06:53;;;;;;;5.68;2.05;;;12.50;99.90;;;;;;4982418;28;20496;-74
2023/10/04 02:09:20;;;;;;;6.68;2.35;;;12.50;99.90;;;;;;4980214;28;20049;-74
2023/10/04 02:11:47;;;;;;;6.57;2.65;;;12.50;99.90;;;;;;4995805;28;20031;-74
2023/10/04 02:14:13;;;;;;;6.75;2.33;;;12.50;99.90;;;;;;4996185;28;22878;-74
2023/10/04 02:16:40;;;;;;;6.22;2.35;;;12.50;99.90;;;;;;5003726;28;20037;-74
2023/10/04 02:19:06;;;;;;;9.15;3.03;;;12.50;99.90;;;;;;4983249;28;20564;-74
2023/10/04 02:21:33;;;;;;;6.47;2.60;;;12.50;99.90;;;;;;4982152;28;20041;-74
2023/10/04 02:24:02;;;;;;;6.35;2.70;;;12.50;99.90;;;;;;5014014;28;20044;-73
2023/10/04 02:26:28;;;;;;;7.88;2.42;;;12.50;99.90;;;;;;4982234;28;20049;-74
2023/10/04 02:28:55;;;;;;;6.10;2.13;;;12.50;99.90;;;;;;4981061;28;20439;-74
2023/10/04 02:31:22;;;;;;;8.32;2.33;;;12.50;99.90;;;;;;4997379;28;20599;-74
2023/10/04 02:33:52;;;;;;;6.13;2.33;;;12.60;99.90;;;;;;4980028;28;20392;-75
2023/10/04 02:36:18;;;;;;;4.55;1.95;;;12.60;99.90;;;;;;4981205;28;20034;-75
2023/10/04 02:38:44;;;;;;;5.05;1.83;;;12.50;99.90;;;;;;4964995;28;20034;-74
2023/10/04 02:41:11;;;;;;;5.30;1.67;;;12.60;99.90;;;;;;4996090;28;20030;-74
2023/10/04 02:43:37;;;;;;;5.07;1.73;;;12.50;99.90;;;;;;4966515;28;20033;-75
2023/10/04 02:46:04;;;;;;;4.60;1.63;;;12.60;99.90;;;;;;5011093;28;20034;-74
2023/10/04 02:48:32;;;;;;;6.07;2.03;;;12.50;99.90;;;;;;4996616;28;20041;-75
2023/10/04 02:50:58;;;;;;;8.00;2.70;;;12.50;99.90;;;;;;4980461;28;20052;-74
2023/10/04 02:53:26;;;;;;;8.95;2.75;;;12.50;99.90;;;;;;4998218;28;20041;-74
2023/10/04 02:55:54;;;;;;;6.13;2.42;;;12.50;99.90;;;;;;4997097;28;20481;-75
2023/10/04 02:58:24;;;;;;;5.28;1.92;;;12.50;99.90;;;;;;4995649;28;20037;-74
2023/10/04 03:00:51;;;;;;;7.03;2.42;;;12.50;99.90;;;;;;4994111;28;20060;-74
2023/10/04 03:03:22;;;;;;;6.55;2.28;;;12.50;99.90;;;;;;4980472;28;20030;-75
2023/10/04 03:05:51;;;;;;;5.95;2.03;;;12.50;99.90;;;;;;4989553;28;20030;-74
2023/10/04 03:08:18;;;;;;;7.05;2.08;;;12.50;99.90;;;;;;4993962;28;20037;-75
2023/10/04 03:10:49;;;;;;;5.90;2.78;;;12.50;99.90;;;;;;4995412;28;20045;-74
2023/10/04 03:13:23;;;;;;;7.18;2.53;;;12.50;99.90;;;;;;4962738;28;20021;-74
2023/10/04 03:15:52;;;;;;;6.32;2.38;;;12.50;99.90;;;;;;4978933;28;20037;-75
2023/10/04 03:18:19;;;;;;;7.00;2.72;;;12.40;99.90;;;;;;4978999;28;20030;-73
2023/10/04 03:21:10;;;;;;;6.18;2.75;;;12.50;99.90;;;;;;4982075;28;20030;-74
2023/10/04 03:23:40;;;;;;;5.25;1.80;;;12.40;99.90;;;;;;4993575;28;20691;-74
2023/10/04 03:26:14;;;;;;;7.70;2.38;;;12.40;99.90;;;;;;4994022;28;20038;-74
2023/10/04 03:28:43;;;;;;;5.80;2.38;;;12.30;99.90;;;;;;4979566;28;20041;-75
2023/10/04 03:31:14;;;;;;;5.63;2.35;;;12.30;99.90;;;;;;4979707;28;20037;-75
2023/10/04 03:33:46;;;;;;;5.97;1.80;;;12.30;99.90;;;;;;4977341;28;20045;-73
2023/10/04 03:36:21;;;;;;;6.88;1.92;;;12.20;99.90;;;;;;4996108;28;20485;-74
2023/10/04 03:38:54;;;;;;;7.25;2.28;;;12.20;99.90;;;;;;4980366;28;20045;-74
2023/10/04 03:41:21;;;;;;;9.07;3.05;;;12.20;99.90;;;;;;4994905;28;20030;-75
2023/10/04 03:43:50;;;;;;;5.60;2.10;;;12.20;99.90;;;;;;4999370;28;20042;-74
2023/10/04 03:46:20;;;;;;;5.05;2.10;;;12.20;99.90;;;;;;4977950;28;20034;-74
2023/10/04 03:48:52;;;;;;;7.18;2.30;;;12.10;99.90;;;;;;4993149;28;20049;-74
2023/10/04 03:51:20;;;;;;;4.03;1.88;;;12.10;99.90;;;;;;4979425;28;20040;-75
2023/10/04 03:53:49;;;;;;;8.02;2.95;;;12.00;99.90;;;;;;4994642;28;20489;-74
2023/10/04 03:56:16;;;;;;;6.53;2.53;;;12.00;99.90;;;;;;4961969;28;20033;-74
2023/10/04 03:58:42;;;;;;;10.05;2.60;;;12.00;99.90;;;;;;4995413;28;20030;-75
2023/10/04 04:01:10;;;;;;;7.35;2.17;;;11.90;99.90;;;;;;4981382;28;20026;-73
2023/10/04 04:03:37;;;;;;;3.95;1.52;;;11.90;99.90;;;;;;4993143;28;20626;-74
2023/10/04 04:06:06;;;;;;;6.38;1.67;;;11.90;99.90;;;;;;4979749;28;20048;-75
2023/10/04 04:08:33;;;;;;;8.25;3.08;;;11.90;99.90;;;;;;4978793;28;20053;-75
2023/10/04 04:11:01;;;;;;;7.95;2.42;;;11.90;99.90;;;;;;4980051;28;20042;-74
2023/10/04 04:13:28;;;;;;;8.93;2.50;;;11.90;99.90;;;;;;4980603;28;20048;-75
2023/10/04 04:15:55;;;;;;;3.78;1.67;;;11.90;99.90;;;;;;4995562;28;20034;-75
2023/10/04 04:18:23;;;;;;;5.30;2.00;;;11.90;99.90;;;;;;4996048;28;20403;-75
2023/10/04 04:20:53;;;;;;;9.82;2.70;;;11.80;99.90;;;;;;4994807;28;20030;-75
2023/10/04 04:23:21;;;;;;;8.30;2.78;;;11.80;99.90;;;;;;4996255;28;20033;-75
2023/10/04 04:25:49;;;;;;;7.57;2.13;;;11.80;99.90;;;;;;4992990;28;20029;-74
2023/10/04 04:28:18;;;;;;;9.32;2.60;;;11.80;99.90;;;;;;4977590;28;20148;-74
2023/10/04 04:30:47;;;;;;;5.45;2.33;;;11.80;99.90;;;;;;4992642;28;20043;-74
2023/10/04 04:33:16;;;;;;;4.80;1.92;;;11.80;99.90;;;;;;4962631;28;20061;-74
2023/10/04 04:40:52;;;;;;;6.47;2.53;;;11.80;99.90;;;;;;4995004;28;20034;-74
2023/10/04 04:45:53;;;;;;;4.32;2.08;;;11.70;99.90;;;;;;4977148;28;20038;-74
2023/10/04 04:48:29;;;;;;;8.20;2.65;;;11.70;99.90;;;;;;4978945;28;20034;-74
2023/10/04 04:51:12;;;;;;;4.75;2.13;;;11.70;99.90;;;;;;4991640;28;20038;-75
2023/10/04 04:53:48;;;;;;;6.35;1.98;;;11.60;99.90;;;;;;4994786;28;20041;-75
2023/10/04 04:56:19;;;;;;;4.75;2.00;;;11.60;99.90;;;;;;4992345;28;20598;-74
2023/10/04 04:58:49;;;;;;;5.72;2.35;;;11.60;99.90;;;;;;5006406;28;20040;-75
2023/10/04 05:01:16;;;;;;;4.55;1.65;;;11.60;99.90;;;;;;4995206;28;20136;-74
2023/10/04 05:03:50;;;;;;;4.70;1.73;;;11.60;99.90;;;;;;4990469;28;20034;-74
2023/10/04 05:06:22;;;;;;;7.93;2.58;;;11.60;99.90;;;;;;4992625;28;20030;-75
2023/10/04 05:08:54;;;;;;;4.57;1.88;;;11.60;99.90;;;;;;4994486;28;20038;-74
2023/10/04 05:11:21;;;;;;;7.50;3.35;;;11.60;99.90;;;;;;4980121;28;20066;-74
2023/10/04 05:13:48;;;;;;;8.18;2.20;;;11.50;99.90;;;;;;4995039;28;20050;-74
2023/10/04 05:16:15;;;;;;;7.20;2.00;;;11.50;99.90;;;;;;4978905;28;20061;-74
2023/10/04 05:18:42;;;;;;;6.18;2.17;;;11.50;99.90;;;;;;4993673;28;20030;-75
2023/10/04 05:21:10;;;;;;;6.50;1.98;;;11.50;99.90;;;;;;4977176;28;20483;-75
2023/10/04 05:23:37;;;;;;;6.70;2.72;;;11.50;99.90;;;;;;4990662;28;20045;-75
2023/10/04 05:26:04;;;;;;;5.90;2.53;;;11.50;99.90;;;;;;4992529;28;20030;-75
2023/10/04 05:28:30;;;;;;;5.20;2.70;;;11.40;99.90;;;;;;4996187;28;20030;-74
2023/10/04 05:30:57;;;;;;;7.15;2.33;;;11.40;99.90;;;;;;4991042;28;20041;-74
2023/10/04 05:33:23;;;;;;;6.50;2.63;;;11.50;99.90;;;;;;4993413;28;20034;-74
2023/10/04 05:35:55;;;;;;;5.88;2.33;;;11.40;99.90;;;;;;4978341;28;20034;-75
2023/10/04 05:38:22;;;;;;;7.28;2.60;;;11.40;99.90;;;;;;4982357;28;20033;-74
2023/10/04 05:40:49;;;;;;;7.78;2.67;;;11.40;99.90;;;;;;4964870;28;20037;-73
2023/10/04 05:43:17;;;;;;;10.02;3.25;;;11.40;99.90;;;;;;4981064;28;20464;-74
2023/10/04 05:45:47;;;;;;;4.35;2.38;;;11.40;99.90;;;;;;4994274;28;20037;-74
2023/10/04 05:48:15;;;;;;;5.40;2.30;;;11.40;99.90;;;;;;4997284;28;20037;-74
2023/10/04 05:50:41;;;;;;;6.95;2.13;;;11.30;99.90;;;;;;4980319;28;20049;-73
2023/10/04 05:53:08;;;;;;;7.65;2.65;;;11.30;99.90;;;;;;4982502;28;21402;-75
2023/10/04 05:55:37;;;;;;;10.40;3.20;;;11.30;99.90;;;;;;4963000;28;20026;-75
2023/10/04 05:58:08;;;;;;;8.00;2.42;;;11.40;99.90;;;;;;4996512;28;20466;-74
2023/10/04 06:00:40;;;;;;;9.60;2.83;;;11.40;99.90;;;;;;4983675;28;20119;-74
2023/10/04 06:03:08;;;;;;;9.50;2.90;;;11.40;99.90;;;;;;5013339;28;20041;-74
2023/10/04 06:05:35;;;;;;;7.72;3.80;;;11.40;99.90;;;;;;5012671;28;20424;-74
2023/10/04 06:08:10;;;;;;;6.80;2.65;;;11.40;99.90;;;;;;4982422;28;20496;-74
2023/10/04 06:10:37;;;;;;;9.65;3.88;;;11.40;99.90;;;;;;4997766;28;20026;-75
2023/10/04 06:13:11;;;;;;;6.55;2.80;;;11.40;99.90;;;;;;4995785;28;20034;-74
2023/10/04 06:15:46;;;;;;;8.27;3.33;;;11.40;99.90;;;;;;4982707;28;20036;-73
2023/10/04 06:18:13;;;;;;;6.05;2.58;;;11.50;99.90;;;;;;4998678;28;20022;-74
2023/10/04 06:20:40;;;;;;;7.07;2.97;;;11.50;99.90;;;;;;4999481;28;20045;-75
2023/10/04 06:23:09;;;;;;;9.70;4.50;;;11.50;99.90;;;;;;4982371;28;20034;-76
2023/10/04 06:26:02;;;;;;;9.88;3.95;;;11.60;99.90;;;;;;5002475;28;20468;-76
2023/10/04 06:28:28;;;;;;;7.70;3.80;;;11.60;99.90;;;;;;4983090;28;20022;-74
2023/10/04 06:30:56;;;;;;;11.55;4.18;;;11.70;99.90;;;;;;4981334;28;20031;-74
2023/10/04 06:33:22;;;;;;;7.30;3.17;;;11.70;99.90;;;;;;4995496;28;20046;-75
2023/10/04 06:35:49;;;;;;;8.90;3.67;;;11.80;99.90;;;;;;4995449;28;20045;-75
2023/10/04 06:38:15;;;;;;;11.27;4.25;;;11.80;99.90;;;;;;5009394;28;20477;-74
2023/10/04 06:40:42;;;;;;;8.82;3.13;;;11.80;99.90;;;;;;4964637;28;20049;-75
2023/10/04 06:43:09;;;;;;;8.65;3.70;;;11.90;99.90;;;;;;4994493;28;20048;-76
2023/10/04 06:45:37;;;;;;;9.32;4.22;;;12.00;99.90;;;;;;4995564;28;20034;-75
2023/10/04 06:48:04;;;;;;;7.88;3.63;;;12.10;99.90;;;;;;4977219;28;20060;-75
2023/10/04 06:50:35;;;;;;;13.48;4.32;;;12.20;99.90;;;;;;4979906;28;20520;-75
2023/10/04 06:53:03;;;;;;;12.95;5.30;;;12.30;99.90;;;;;;4979472;28;20037;-75
2023/10/04 06:55:31;;;;;;;7.95;4.28;;;12.40;99.90;;;;;;4962607;28;20034;-73
2023/10/04 06:57:58;;;;;;;16.77;8.82;;;12.50;99.90;;;;;;4999650;28;20053;-74
2023/10/04 07:00:30;;;;;;;12.25;6.28;;;12.50;99.90;;;;;;4999671;28;20305;-75
2023/10/04 07:02:58;;;;;;;;;;;12.50;99.90;;;;;;5010581;28;20432;-73
2023/10/04 07:05:26;;;;;;;13.73;5.40;;;12.50;99.90;;;;;;4981219;28;19928;-74
2023/10/04 07:07:59;;;;;;;11.80;5.07;;;12.50;99.90;;;;;;4982367;28;20033;-73
2023/10/04 07:10:28;;;;;;;9.73;5.20;;;12.60;99.90;;;;;;4995677;28;20050;-74
2023/10/04 07:12:57;;;;;;;14.90;5.32;;;12.60;99.90;;;;;;4996871;28;20471;-75
2023/10/04 07:15:28;;;;;;;13.02;4.88;;;12.70;99.90;;;;;;4998878;28;20037;-74
2023/10/04 07:17:55;;;;;;;15.80;5.07;;;12.70;99.90;;;;;;4977629;28;20478;-76
2023/10/04 07:20:24;;;;;;;10.68;5.10;;;12.80;99.90;;;;;;4998942;28;20376;-76
2023/10/04 07:22:58;;;;;;;16.55;6.07;;;12.90;99.90;;;;;;4995417;28;20073;-76
2023/10/04 07:25:32;;;;;;;12.10;5.28;;;12.90;99.90;;;;;;4995755;28;20036;-76
2023/10/04 07:28:03;;;;;;;10.45;4.63;;;13.00;99.90;;;;;;5011568;28;20412;-76
2023/10/04 07:30:31;;;;;;;12.95;5.05;;;13.10;99.90;;;;;;4995671;28;20061;-75
2023/10/04 07:32:59;;;;;;;13.23;5.28;;;13.10;99.90;;;;;;4996827;28;20041;-76
2023/10/04 07:35:27;;;;;;;7.50;3.97;;;13.20;99.90;;;;;;5011653;28;20049;-76
2023/10/04 07:37:54;;;;;;;11.48;4.15;;;13.20;99.90;;;;;;4995279;28;20026;-75
2023/10/04 07:40:23;;;;;;;11.05;3.92;;;13.30;99.90;;;;;;4997027;28;20046;-75
2023/10/04 07:42:54;;;;;;;9.27;3.88;;;13.40;99.90;;;;;;4997865;28;20025;-75
2023/10/04 07:45:28;;;;;;;11.13;4.40;;;13.50;99.90;;;;;;4983711;28;20032;-75
2023/10/04 07:47:56;;;;;;;10.05;4.20;;;13.50;99.90;;;;;;4997538;28;20106;-76
2023/10/04 07:50:22;;;;;;;15.23;5.53;;;13.60;99.90;;;;;;4979757;28;20038;-76
2023/10/04 07:52:50;;;;;;;11.23;3.85;;;13.60;99.90;;;;;;4996752;28;20029;-76
2023/10/04 07:55:20;;;;;;;11.15;4.40;;;13.70;99.90;;;;;;4992510;28;20625;-76
2023/10/04 07:57:52;;;;;;;11.38;3.97;;;13.80;99.90;;;;;;4979016;28;20040;-74
2023/10/04 08:00:20;;;;;;;;;;;13.80;99.90;;;;;;4994495;28;20913;-74
2023/10/04 08:02:51;;;;;;;9.55;3.47;;;13.90;99.90;;;;;;4977533;28;20324;-75
2023/10/04 08:05:26;;;;;;;11.73;4.70;;;14.00;99.90;;;;;;4977525;28;20056;-75
2023/10/04 08:07:57;;;;;;;7.60;3.90;;;14.10;99.90;;;;;;4993366;28;20049;-76
2023/10/04 08:10:27;;;;;;;14.73;4.90;;;14.20;99.90;;;;;;4994436;28;20053;-75
2023/10/04 08:12:55;;;;;;;10.20;3.70;;;14.30;99.90;;;;;;4983413;28;20030;-75
2023/10/04 08:15:25;;;;;;;8.65;3.55;;;14.40;99.90;;;;;;4977701;28;20044;-75
2023/10/04 08:17:55;;;;;;;10.18;3.95;;;14.50;99.90;;;;;;5009198;28;20046;-75
2023/10/04 08:20:24;;;;;;;10.60;3.65;;;14.50;99.90;;;;;;4993496;28;20042;-75
2023/10/04 08:22:58;;;;;;;12.88;4.20;;;14.60;99.90;;;;;;5043559;28;21016;-74
2023/10/04 08:25:28;;;;;;;12.82;4.40;;;14.70;99.90;;;;;;5033272;28;20041;-76
2023/10/04 08:27:55;;;;;;;10.38;3.65;;;14.70;99.90;;;;;;5009463;28;20037;-74
2023/10/04 08:30:22;;;;;;;12.50;4.05;;;14.80;99.90;;;;;;5033746;28;20052;-75
2023/10/04 08:32:50;;;;;;;10.13;3.60;;;14.90;99.90;;;;;;5030543;28;20037;-75
2023/10/04 08:35:51;;;;;;;12.25;4.03;;;15.00;99.90;;;;;;5029699;28;20052;-73
2023/10/04 08:38:10;;;;;;;13.45;4.10;;;15.10;99.90;;;;;;5033733;28;20033;-74
2023/10/04 08:40:41;;;;;;;7.95;3.63;;;15.20;99.90;;;;;;5033497;28;20472;-74
2023/10/04 08:43:08;;;;;;;10.95;3.60;;;15.20;99.90;;;;;;5033367;28;20406;-73
2023/10/04 08:45:35;;;;;;;9.25;3.28;;;15.20;99.90;;;;;;5031962;28;20047;-73
2023/10/04 08:48:02;;;;;;;13.45;3.33;;;15.30;99.90;;;;;;5016359;28;20037;-74
2023/10/04 08:50:36;;;;;;;8.98;3.97;;;15.40;99.90;;;;;;5012884;28;20689;-74
2023/10/04 08:53:27;;;;;;;12.77;4.43;;;15.50;99.90;;;;;;5033520;28;20029;-74
2023/10/04 08:55:59;;;;;;;10.85;3.78;;;15.70;99.90;;;;;;5014963;28;20040;-74
2023/10/04 08:58:26;;;;;;;13.32;3.50;;;15.90;99.90;;;;;;5016097;28;20029;-75
2023/10/04 09:00:53;;;;;;;10.80;3.88;;;16.00;99.90;;;;;;4997165;28;20036;-74
2023/10/04 09:03:23;;;;;;;14.20;4.40;;;16.10;99.90;;;;;;5015760;28;20041;-74
2023/10/04 09:05:52;;;;;;;7.72;2.88;;;16.10;99.90;;;;;;5012676;28;20731;-74
2023/10/04 09:08:18;;;;;;;9.30;3.50;;;16.10;99.90;;;;;;5013015;28;20037;-75
2023/10/04 09:10:45;;;;;;;9.35;2.63;;;16.20;99.90;;;;;;5015042;28;20040;-75
2023/10/04 09:13:12;;;;;;;8.27;3.67;;;16.20;99.90;;;;;;5016389;28;20544;-75
2023/10/04 09:15:39;;;;;;;10.73;3.53;;;16.30;99.90;;;;;;5017296;28;20036;-74
2023/10/04 09:18:05;;;;;;;13.90;3.85;;;16.30;99.90;;;;;;5015578;28;20056;-74
2023/10/04 09:20:32;;;;;;;9.45;3.05;;;16.40;99.90;;;;;;5010055;28;20452;-74
2023/10/04 09:23:00;;;;;;;8.05;2.97;;;16.40;99.90;;;;;;5015005;28;20713;-75
2023/10/04 09:25:38;;;;;;;12.45;2.95;;;16.60;99.90;;;;;;5009054;28;20033;-75
2023/10/04 09:28:06;;;;;;;9.77;2.80;;;16.60;99.90;;;;;;5026871;28;20032;-74
2023/10/04 09:30:36;;;;;;;12.02;3.78;;;16.70;99.90;;;;;;5032636;28;20033;-75
2023/10/04 09:33:20;;;;;;;13.07;4.15;;;16.80;99.90;;;;;;5008436;28;20037;-74
2023/10/04 09:35:47;;;;;;;9.23;3.00;;;16.80;99.90;;;;;;5032085;28;20493;-74
2023/10/04 09:38:15;;;;;;;8.38;2.75;;;17.00;99.90;;;;;;5002119;28;20036;-75
2023/10/04 09:40:52;;;;;;;11.00;2.67;;;17.10;99.90;;;;;;5017826;28;20140;-75
2023/10/04 09:43:32;;;;;;;12.07;3.90;;;17.10;99.90;;;;;;5018873;28;20052;-74
2023/10/04 09:45:59;;;;;;;15.48;4.28;;;17.30;99.90;;;;;;5019386;28;20034;-75
2023/10/04 09:48:33;;;;;;;8.77;2.60;;;17.30;99.90;;;;;;5015109;28;20045;-75
2023/10/04 09:51:05;;;;;;;13.65;3.75;;;17.30;99.90;;;;;;5016654;28;20037;-75
2023/10/04 09:53:32;;;;;;;7.72;2.72;;;17.30;99.90;;;;;;5018529;28;20038;-75
2023/10/04 09:56:03;;;;;;;11.75;2.50;;;17.30;99.90;;;;;;5020422;28;20396;-75
2023/10/04 09:58:32;;;;;;;13.15;3.35;;;17.40;99.90;;;;;;5016964;28;20380;-75
2023/10/04 10:01:11;;;;;;;8.07;2.67;;;17.50;99.90;;;;;;5018318;28;20048;-78
2023/10/04 10:04:08;;;;;;;7.50;2.38;;;17.60;99.90;;;;;;5002862;28;20504;-75
2023/10/04 10:06:45;;;;;;;9.80;2.78;;;17.70;99.90;;;;;;5015863;28;20117;-74
2023/10/04 10:09:16;;;;;;;7.57;2.45;;;17.70;99.90;;;;;;4999260;28;20040;-74
2023/10/04 10:11:45;;;;;;;11.20;3.40;;;17.70;99.90;;;;;;5017253;28;20037;-74
2023/10/04 10:14:14;;;;;;;8.30;2.85;;;17.70;99.90;;;;;;5013494;28;20041;-78
2023/10/04 10:16:42;;;;;;;6.95;2.40;;;17.80;99.90;;;;;;5031846;28;20412;-75
2023/10/04 10:19:09;;;;;;;8.32;2.33;;;17.80;99.90;;;;;;5003009;28;20229;-75
2023/10/04 10:22:18;;;;;;;8.27;2.53;;;18.00;99.90;;;;;;5017003;28;20037;-74
2023/10/04 10:25:13;;;;;;;11.77;3.10;;;18.10;99.90;;;;;;5016852;28;20414;-77
2023/10/04 10:27:40;;;;;;;11.32;2.63;;;18.10;99.90;;;;;;5012155;28;20960;-76
2023/10/04 10:30:08;;;;;;;13.52;4.13;;;18.10;99.90;;;;;;5017916;28;20037;-80
2023/10/04 10:33:02;;;;;;;8.25;3.28;;;18.10;99.90;;;;;;5015597;28;20030;-75
2023/10/04 10:36:06;;;;;;;9.35;3.13;;;18.10;99.90;;;;;;4981792;28;20480;-77
2023/10/04 10:38:41;;;;;;;9.63;2.97;;;18.10;99.90;;;;;;4983549;28;20048;-76
2023/10/04 10:41:11;;;;;;;9.00;2.95;;;18.10;99.90;;;;;;5014935;28;20025;-78
2023/10/04 10:44:30;;;;;;;10.27;3.08;;;18.10;99.90;;;;;;4985251;28;20036;-77
2023/10/04 10:46:59;;;;;;;16.77;3.83;;;18.10;99.90;;;;;;5018611;28;20042;-76
2023/10/04 10:49:40;;;;;;;9.70;2.75;;;18.10;99.90;;;;;;5015150;28;20033;-76
2023/10/04 10:52:19;;;;;;;9.10;3.50;;;18.20;99.90;;;;;;5032166;28;20038;-78
2023/10/04 10:54:47;;;;;;;16.08;4.57;;;18.20;99.90;;;;;;5015783;28;20041;-77
2023/10/04 10:57:14;;;;;;;8.35;2.80;;;18.30;99.90;;;;;;4986546;28;20036;-78
2023/10/04 10:59:40;;;;;;;9.82;2.90;;;18.40;99.90;;;;;;5019970;28;20034;-77
2023/10/04 11:02:06;;;;;;;12.50;3.72;;;18.40;99.90;;;;;;4995680;28;20042;-77
2023/10/04 11:04:34;;;;;;;7.88;2.35;;;18.40;99.90;;;;;;4985936;28;20041;-78
2023/10/04 11:07:00;;;;;;;9.40;2.60;;;18.40;99.90;;;;;;5001580;28;20082;-77
2023/10/04 11:09:30;;;;;;;8.13;2.83;;;18.60;99.90;;;;;;5001496;28;20041;-78
2023/10/04 11:11:56;;;;;;;13.63;3.55;;;18.60;99.90;;;;;;5003930;28;20484;-78
2023/10/04 11:14:23;;;;;;;10.70;2.63;;;18.70;99.90;;;;;;5018562;28;20497;-76
2023/10/04 11:16:51;;;;;;;10.50;3.83;;;18.80;99.90;;;;;;5016108;28;20041;-75
2023/10/04 11:19:17;;;;;;;10.00;2.95;;;19.00;99.90;;;;;;5018621;28;20420;-76
2023/10/04 11:21:45;;;;;;;12.68;3.38;;;19.10;99.90;;;;;;5001975;28;20037;-76
2023/10/04 11:24:14;;;;;;;12.57;3.55;;;19.10;99.90;;;;;;5017156;28;20032;-75
2023/10/04 11:26:42;;;;;;;9.27;2.97;;;19.20;99.90;;;;;;4999954;28;20033;-79
2023/10/04 11:29:09;;;;;;;9.93;2.95;;;19.30;99.90;;;;;;5033402;28;20387;-79
2023/10/04 11:31:36;;;;;;;10.85;2.72;;;19.30;99.90;;;;;;5015377;28;20034;-80
2023/10/04 11:34:04;;;;;;;8.10;2.40;;;19.40;99.90;;;;;;5017522;28;20060;-78
2023/10/04 11:36:35;;;;;;;8.70;2.38;;;19.40;99.90;;;;;;5001792;28;20381;-79
2023/10/04 11:39:10;;;;;;;8.57;2.60;;;19.60;99.90;;;;;;5017421;28;20041;-82
2023/10/04 11:41:39;;;;;;;10.02;3.22;;;19.70;99.90;;;;;;5017117;28;20267;-80
2023/10/04 11:44:06;;;;;;;7.60;2.60;;;19.80;99.90;;;;;;4993102;28;20104;-81
2023/10/04 11:46:58;;;;;;;8.32;2.80;;;19.90;99.90;;;;;;5018863;28;20036;-77
2023/10/04 11:49:28;;;;;;;7.03;2.70;;;20.10;99.90;;;;;;5007256;28;20807;-82
2023/10/04 11:51:59;;;;;;;8.80;2.95;;;20.30;99.90;;;;;;5009839;28;20037;-79
2023/10/04 11:54:37;;;;;;;8.57;2.80;;;20.40;99.90;;;;;;4984734;28;20029;-79
2023/10/04 11:57:05;;;;;;;10.98;3.05;;;20.50;99.90;;;;;;5016420;28;20033;-79
2023/10/04 11:59:33;;;;;;;7.03;2.10;;;20.50;99.90;;;;;;5017776;28;20034;-79
2023/10/04 12:02:00;;;;;;;6.30;1.98;;;20.50;99.90;;;;;;4998772;28;20029;-79
2023/10/04 12:04:28;;;;;;;11.52;3.42;;;20.60;99.90;;;;;;5015709;28;20555;-80
2023/10/04 12:07:03;;;;;;;10.65;3.30;;;20.70;99.90;;;;;;5016675;28;20041;-77
2023/10/04 12:09:34;;;;;;;7.65;3.22;;;20.90;99.90;;;;;;5015904;28;20362;-79
2023/10/04 12:12:07;;;;;;;7.20;2.20;;;21.00;99.90;;;;;;4998667;28;20032;-80
2023/10/04 12:14:34;;;;;;;10.35;3.05;;;20.90;99.90;;;;;;5011794;28;20355;-79
2023/10/04 12:17:05;;;;;;;10.40;3.80;;;20.80;99.90;;;;;;4998799;28;20030;-80
2023/10/04 12:19:32;;;;;;;7.10;2.67;;;20.70;99.90;;;;;;5014743;28;20388;-80
2023/10/04 12:22:02;;;;;;;6.72;3.13;;;20.60;99.90;;;;;;4999617;28;20540;-80
2023/10/04 12:24:32;;;;;;;8.02;3.03;;;20.60;99.90;;;;;;4986114;28;20463;-80
2023/10/04 12:27:00;;;;;;;5.65;2.15;;;20.40;99.90;;;;;;4998504;28;20302;-79
2023/10/04 12:29:27;;;;;;;8.30;2.60;;;20.30;99.90;;;;;;4983292;28;20542;-81
2023/10/04 12:31:55;;;;;;;8.50;2.58;;;20.30;99.90;;;;;;5017003;28;20503;-81
2023/10/04 12:34:24;;;;;;;6.47;2.60;;;20.30;99.90;;;;;;5015586;28;20029;-82
2023/10/04 12:36:51;;;;;;;6.82;2.65;;;20.20;99.90;;;;;;5015701;28;20038;-77
2023/10/04 12:39:19;;;;;;;7.15;2.85;;;20.20;99.90;;;;;;4996208;28;20405;-80
2023/10/04 12:41:45;;;;;;;10.00;2.40;;;20.10;99.90;;;;;;5012156;28;20300;-79
2023/10/04 12:44:16;;;;;;;8.85;2.67;;;20.10;99.90;;;;;;5018657;28;20424;-77
2023/10/04 12:46:42;;;;;;;8.18;2.47;;;20.00;99.90;;;;;;5015919;28;20119;-81
2023/10/04 12:49:09;;;;;;;8.13;2.65;;;20.00;99.90;;;;;;4988055;28;20040;-80
2023/10/04 12:51:35;;;;;;;5.70;2.40;;;20.10;99.90;;;;;;5014547;28;20680;-80
2023/10/04 12:54:03;;;;;;;8.10;2.90;;;20.10;99.90;;;;;;4983088;28;20396;-79
2023/10/04 12:56:29;;;;;;;8.13;2.85;;;20.10;99.90;;;;;;5015493;28;20492;-78
2023/10/04 12:58:56;;;;;;;9.90;3.50;;;19.90;99.90;;;;;;5017675;28;20041;-81
2023/10/04 13:01:22;;;;;;;10.65;3.08;;;19.90;99.90;;;;;;5017696;28;20060;-80
2023/10/04 13:03:49;;;;;;;9.20;2.55;;;19.90;99.90;;;;;;5031093;28;20403;-81
2023/10/04 13:06:15;;;;;;;8.52;2.25;;;20.00;99.90;;;;;;5015420;28;20104;-80